METAR - Iceland

Last updated 15.10.2018 - at. 15:16

SIGMET for the last six hours

No SIGMET messages last 6 hours.

METAR from the last three hours

AerodromeTimeMessage
BIAR2018-10-15 15.00METAR BIAR 151500Z 18006KT 9999 SCT050 07/01 Q0992
BIAR2018-10-15 14.00METAR BIAR 151400Z 19007KT 9999 SCT055 07/01 Q0992
BIAR2018-10-15 13.00METAR BIAR 151300Z 17012KT 9999 FEW060 08/01 Q0991
BIBD2018-10-15 13.00METAR BIBD 151300Z 19010KT 9999 VCSH SCT015 BKN025 06/04 Q0989
BIEG2018-10-15 15.00METAR BIEG 151500Z 22007KT CAVOK 09/01 Q0993
BIEG2018-10-15 14.00METAR BIEG 151400Z 22008KT CAVOK 09/00 Q0993
BIEG2018-10-15 13.00METAR BIEG 151300Z 21010KT 9999 FEW050 08/00 Q0992 R04/CLRD//
BIGR2018-10-15 14.00METAR BIGR 151400Z 14005KT 9999 BKN040 06/02 Q0992
BIHN2018-10-15 15.00METAR BIHN 151500Z 22009KT 9999 FEW020 07/04 Q0995
BIHN2018-10-15 14.00METAR BIHN 151400Z 20007KT 9999 FEW012 SCT017 08/04 Q0995
BIHN2018-10-15 13.00METAR BIHN 151300Z 20012KT 9999 FEW012 BKN016 07/04 Q0994
BIHU2018-10-15 15.00METAR BIHU 151500Z 15007KT 9999 FEW055 08/M01 Q0992
BIHU2018-10-15 14.00METAR BIHU 151400Z 15007KT 9999 FEW055 08/M01 Q0992
BIIS2018-10-15 15.00METAR BIIS 151500Z 00000KT 9999 FEW025 BKN030 05/01 Q0989
BIIS2018-10-15 14.00METAR BIIS 151400Z 00000KT 9999 SCT025 BKN030 04/M00 Q0989
BIIS2018-10-15 13.00METAR BIIS 151300Z 00000KT 9999 SCT025 03/M00 Q0989
BIKF2018-10-15 15.00METAR BIKF 151500Z 17015KT 9999 VCSH FEW019TCU SCT025TCU BKN060 06/03 Q0990
BIKF2018-10-15 14.30METAR BIKF 151430Z 16014KT 9999 VCSH FEW017TCU SCT021TCU BKN040 06/03 Q0990
BIKF2018-10-15 14.00METAR BIKF 151400Z 16017KT 9999 FEW023TCU SCT035TCU BKN065 07/04 Q0990
BIKF2018-10-15 13.30METAR BIKF 151330Z 17014KT 9999 SCT022TCU BKN065 07/03 Q0990
BIKF2018-10-15 13.00METAR BIKF 151300Z 15015KT 9999 FEW021TCU SCT031 BKN065 07/03 Q0990
BIKF2018-10-15 12.30METAR BIKF 151230Z 15009KT 9999 VCSH FEW010TCU SCT026 BKN060 06/03 Q0990
BIRK2018-10-15 15.00METAR BIRK 151500Z 17013KT 9999 3000NE -SHRA FEW026 SCT030CB BKN033 06/02 Q0991
BIRK2018-10-15 14.00METAR BIRK 151400Z 16011KT 9999 -SHRA FEW024 SCT038CB BKN042 07/02 Q0991
BIRK2018-10-15 13.00METAR BIRK 151300Z 17010KT 9999 FEW028CB 07/01 Q0991
BIVM2018-10-15 15.14METAR BIVM 151514Z 18014G25KT 140V200 9999 SCT020 07/04 Q0992
BIVM2018-10-15 14.00METAR BIVM 151400Z 18013KT 9999 SCT020 07/04 Q0992
BIVO2018-10-15 15.00METAR BIVO 151500Z 22010KT CAVOK 08/01 Q0994





Other related web sites


This website is built with Eplica CMS